Time;durP1;ratioP1;P1;durP2;ratioP2;P2;SDS_P1;SDS_P2;PMS_P1;PMS_P2;Temp;Humidity;BMP_temperature;BMP_pressure;BME280_temperature;BME280_humidity;BME280_pressure;Samples;Min_cycle;Max_cycle;Signal;HPM_P1;HPM_P2
2022/12/15 00:39:14;;;;;;;83.95;32.63;;;;;;;-1.10;52.96;100130.56;4967102;28;97189;-72
2022/12/15 00:41:41;;;;;;;78.80;32.03;;;;;;;-0.97;52.56;100128.00;4965766;28;99397;-72
2022/12/15 00:44:07;;;;;;;93.50;33.85;;;;;;;-1.21;53.14;100131.44;4973388;28;96991;-73
2022/12/15 01:22:08;;;;;;;88.47;33.33;;;;;;;-1.01;52.13;100148.75;4967444;28;96794;-73
2022/12/15 01:24:35;;;;;;;90.78;33.95;;;;;;;-1.31;52.49;100154.72;4965327;28;98741;-72
2022/12/15 01:27:03;;;;;;;79.60;31.70;;;;;;;-1.14;51.77;100153.03;4970722;28;97126;-71
2022/12/15 01:29:29;;;;;;;79.15;32.65;;;;;;;-1.50;52.89;100147.72;4975221;28;97543;-72
2022/12/15 01:31:56;;;;;;;84.97;34.35;;;;;;;-1.50;53.24;100151.19;4969261;28;98937;-74
2022/12/15 01:34:22;;;;;;;87.28;35.15;;;;;;;-1.58;53.61;100144.28;4966648;28;99388;-72
2022/12/15 01:36:48;;;;;;;81.70;33.65;;;;;;;-1.62;53.12;100149.44;4967828;28;97673;-73
2022/12/15 01:39:15;;;;;;;80.63;32.47;;;;;;;-1.81;53.56;100152.81;4971570;28;97192;-72
2022/12/15 01:41:41;;;;;;;90.32;33.65;;;;;;;-1.85;54.04;100156.25;4972113;28;98960;-73
2022/12/15 01:44:19;;;;;;;85.05;33.80;;;;;;;-1.57;54.04;100149.44;4964143;28;98722;-72
2022/12/15 01:46:46;;;;;;;81.97;33.17;;;;;;;-1.44;54.16;100155.53;4965962;28;96678;-72
2022/12/15 01:49:17;;;;;;;76.57;31.45;;;;;;;-1.24;52.59;100151.28;4973411;28;96930;-74
2022/12/15 01:51:47;;;;;;;84.28;33.38;;;;;;;-1.25;52.45;100142.63;4974292;28;100305;-72
2022/12/15 01:54:16;;;;;;;83.15;33.80;;;;;;;-1.33;52.94;100146.94;4966003;28;100083;-73
2022/12/15 01:56:46;;;;;;;77.30;32.40;;;;;;;-1.22;52.41;100147.84;4968249;28;96826;-76
2022/12/15 01:59:19;;;;;;;81.10;31.63;;;;;;;-1.25;52.35;100158.19;4972967;28;97139;-74
2022/12/15 02:01:45;;;;;;;80.05;34.00;;;;;;;-1.29;52.96;100161.63;4968375;28;99085;-72
2022/12/15 02:04:12;;;;;;;79.18;32.30;;;;;;;-1.16;52.84;100153.88;4965662;28;98889;-73
2022/12/15 02:06:38;;;;;;;79.55;31.48;;;;;;;-1.33;53.21;100152.13;4969054;28;97728;-73
2022/12/15 02:09:05;;;;;;;93.20;34.47;;;;;;;-1.04;52.74;100147.00;4965472;28;96883;-72
2022/12/15 02:11:56;;;;;;;85.90;33.38;;;;;;;-1.21;53.14;100151.28;4968175;28;99395;-73
2022/12/15 02:14:35;;;;;;;77.85;33.08;;;;;;;-1.43;52.98;100155.53;4963122;28;99623;-73
2022/12/15 02:17:12;;;;;;;78.15;31.63;;;;;;;-1.52;53.76;100152.94;4965893;28;96831;-72
2022/12/15 02:20:11;;;;;;;87.88;32.40;;;;;;;-1.55;54.14;100147.72;4968902;28;96693;-71
2022/12/15 02:22:56;;;;;;;76.82;31.60;;;;;;;-1.51;53.98;100162.41;4952241;28;99093;-72
2022/12/15 02:25:47;;;;;;;82.60;31.90;;;;;;;-1.46;53.84;100173.69;4963988;28;98879;-73
2022/12/15 02:28:22;;;;;;;82.85;30.90;;;;;;;-1.52;54.23;100165.88;4965401;28;96983;-72
2022/12/15 02:33:38;;;;;;;89.35;32.83;;;;;;;-1.40;54.19;100178.03;4968902;28;98915;-72
2022/12/15 02:36:11;;;;;;;79.35;32.00;;;;;;;-1.36;54.09;100187.53;4971170;28;101160;-72
2022/12/15 02:38:40;;;;;;;78.43;33.17;;;;;;;-1.40;53.99;100199.63;4965673;28;96956;-73
2022/12/15 02:41:36;;;;;;;75.35;31.55;;;;;;;-1.45;54.00;100198.75;4971254;28;96989;-72
2022/12/15 02:44:09;;;;;;;78.82;30.92;;;;;;;-1.38;54.22;100205.66;4968080;28;98890;-73
2022/12/15 02:46:49;;;;;;;82.97;31.90;;;;;;;-1.55;54.70;100209.91;4969148;28;100770;-72
2022/12/15 02:49:22;;;;;;;81.00;33.08;;;;;;;-1.52;54.66;100222.03;4962687;28;98594;-72
2022/12/15 02:51:58;;;;;;;85.25;30.92;;;;;;;-1.32;54.15;100221.25;4962797;28;96784;-73
2022/12/15 02:54:42;;;;;;;75.93;30.98;;;;;;;-1.22;53.99;100219.56;4964373;28;99057;-72
2022/12/15 02:57:17;;;;;;;55.65;20.67;;;;;;;-1.48;54.57;100224.63;4967000;28;98113;-71
2022/12/15 02:59:54;;;;;;;78.50;30.35;;;;;;;-1.36;54.78;100221.22;4966235;28;97228;-72
2022/12/15 03:02:25;;;;;;;70.63;30.38;;;;;;;-1.29;54.89;100221.25;4963927;28;97067;-72
2022/12/15 03:04:52;;;;;;;74.82;29.38;;;;;;;-1.08;54.15;100217.88;4971259;28;99305;-72
2022/12/15 03:07:18;;;;;;;71.13;29.33;;;;;;;-1.37;55.48;100225.53;4974129;28;100237;-72
2022/12/15 03:09:45;;;;;;;66.65;28.38;;;;;;;-0.99;54.67;100222.22;4960508;28;96698;-72
2022/12/15 03:12:11;;;;;;;75.05;30.23;;;;;;;-1.00;54.21;100223.09;4968235;28;97072;-72
2022/12/15 03:14:37;;;;;;;71.80;28.25;;;;;;;-0.92;54.38;100232.59;4971650;28;99079;-74
2022/12/15 03:17:06;;;;;;;75.47;29.55;;;;;;;-0.98;54.60;100226.53;4966163;28;99121;-72
2022/12/15 03:19:34;;;;;;;68.47;28.33;;;;;;;-0.95;53.86;100218.78;4965170;28;97687;-72
2022/12/15 04:05:45;;;;;;;69.80;26.85;;;;;;;-1.66;55.36;100256.50;4961626;28;97182;-73
2022/12/15 04:08:12;;;;;;;70.30;25.92;;;;;;;-1.76;55.61;100254.69;4967586;28;99350;-72
2022/12/15 04:10:38;;;;;;;63.28;27.92;;;;;;;-1.73;55.35;100265.09;4966898;28;96810;-73
2022/12/15 04:13:06;;;;;;;69.40;26.63;;;;;;;-1.79;55.41;100264.19;4963958;28;96879;-72
2022/12/15 04:15:33;;;;;;;71.75;27.52;;;;;;;-1.84;55.68;100260.69;4968278;28;98946;-72
2022/12/15 04:18:01;;;;;;;65.05;24.92;;;;;;;-1.76;54.82;100253.81;4963305;28;99157;-72
2022/12/15 04:20:28;;;;;;;67.68;26.40;;;;;;;-1.80;55.11;100262.44;4961262;28;96769;-72
2022/12/15 04:22:56;;;;;;;72.63;28.13;;;;;;;-1.77;55.37;100267.66;4969378;28;96820;-72
2022/12/15 05:31:50;;;;;;;61.28;24.45;;;;;;;-2.20;55.14;100344.97;4968625;28;97141;-71
2022/12/15 05:34:17;;;;;;;54.17;22.88;;;;;;;-2.20;55.03;100359.63;4964774;28;99227;-72
2022/12/15 05:36:44;;;;;;;68.75;26.58;;;;;;;-2.19;55.11;100357.06;4967108;28;98617;-72
2022/12/15 05:39:10;;;;;;;63.10;24.98;;;;;;;-2.19;54.85;100354.47;4962815;28;97100;-71
2022/12/15 05:41:36;;;;;;;64.55;24.52;;;;;;;-2.24;54.41;100353.59;4969571;28;99381;-72
2022/12/15 05:44:04;;;;;;;64.38;25.38;;;;;;;-2.41;54.46;100357.69;4965645;28;99047;-71
2022/12/15 05:46:31;;;;;;;70.97;25.90;;;;;;;-2.44;54.29;100363.72;4970829;28;97277;-71
2022/12/15 05:48:57;;;;;;;74.13;26.88;;;;;;;-2.49;54.09;100359.31;4976365;28;96944;-71
2022/12/15 05:51:24;;;;;;;65.07;25.63;;;;;;;-2.58;54.07;100379.94;4972227;28;99005;-73
2022/12/15 05:53:50;;;;;;;63.33;25.38;;;;;;;-2.56;54.26;100370.50;4970953;28;98847;-71
2022/12/15 05:56:17;;;;;;;63.38;24.70;;;;;;;-2.51;53.96;100377.44;4969948;28;96909;-71
2022/12/15 05:58:43;;;;;;;64.63;24.45;;;;;;;-2.53;54.19;100381.72;4973159;28;96989;-70
2022/12/15 06:01:13;;;;;;;59.97;23.77;;;;;;;-2.69;54.26;100381.53;4967927;28;97761;-73
2022/12/15 06:03:39;;;;;;;64.38;25.15;;;;;;;-2.51;54.14;100384.34;4966135;28;101763;-74
2022/12/15 06:06:09;;;;;;;69.75;25.00;;;;;;;-2.28;53.30;100376.81;4968792;28;96842;-71
2022/12/15 06:08:37;;;;;;;68.32;25.20;;;;;;;-2.56;54.17;100401.53;4969515;28;96993;-74
2022/12/15 06:11:05;;;;;;;66.38;26.00;;;;;;;-2.58;53.79;100423.91;4962651;28;99205;-72
2022/12/15 06:13:33;;;;;;;61.67;24.60;;;;;;;-2.72;54.58;100421.16;4959914;28;101210;-73
2022/12/15 06:16:01;;;;;;;62.65;23.17;;;;;;;-2.64;54.11;100411.78;4971435;28;96822;-72
2022/12/15 06:18:31;;;;;;;59.80;24.20;;;;;;;-2.55;54.19;100413.59;4968096;28;97305;-72
2022/12/15 06:20:59;;;;;;;63.47;24.15;;;;;;;-2.65;54.33;100422.09;4963645;28;99027;-71
2022/12/15 06:23:26;;;;;;;68.90;24.35;;;;;;;-2.59;54.25;100410.13;4957795;28;98435;-73
2022/12/15 06:25:53;;;;;;;61.90;24.45;;;;;;;-2.48;53.73;100411.09;4967974;28;96886;-72
2022/12/15 06:28:23;;;;;;;57.10;23.88;;;;;;;-2.57;54.08;100411.00;4958985;28;98184;-72
2022/12/15 06:30:51;;;;;;;64.65;24.60;;;;;;;-2.52;54.08;100414.50;4960563;28;99069;-71
2022/12/15 06:33:18;;;;;;;62.75;24.75;;;;;;;-2.46;53.50;100403.34;4960136;28;99162;-73
2022/12/15 06:35:47;;;;;;;58.00;23.50;;;;;;;-2.70;53.59;100403.06;4963871;28;98577;-74
2022/12/15 06:38:13;;;;;;;59.05;22.70;;;;;;;-2.55;53.62;100409.28;4960849;28;98682;-72
2022/12/15 06:40:41;;;;;;;67.25;25.00;;;;;;;-2.60;53.66;100404.91;4959488;28;99117;-72
2022/12/15 06:43:08;;;;;;;62.90;24.05;;;;;;;-2.78;53.92;100402.09;4962557;28;99503;-72
2022/12/15 06:45:35;;;;;;;64.00;25.10;;;;;;;-2.58;53.73;100400.63;4960703;28;98954;-72
2022/12/15 06:48:01;;;;;;;63.38;23.15;;;;;;;-2.72;53.38;100405.63;4960965;28;96945;-70
2022/12/15 06:50:27;;;;;;;60.97;24.67;;;;;;;-2.44;53.10;100415.47;4966108;28;100555;-72
2022/12/15 06:52:56;;;;;;;62.72;24.40;;;;;;;-2.42;52.95;100421.50;4956112;28;101117;-72
2022/12/15 06:55:22;;;;;;;63.88;25.23;;;;;;;-2.41;52.79;100419.78;4965799;28;98527;-72
2022/12/15 06:57:48;;;;;;;57.35;22.38;;;;;;;-2.40;52.86;100431.88;4965325;28;97001;-71
2022/12/15 07:00:16;;;;;;;62.45;24.02;;;;;;;-2.52;52.97;100435.22;4968171;28;97878;-72
2022/12/15 07:02:42;;;;;;;64.93;24.17;;;;;;;-2.43;52.86;100434.47;4965423;28;97962;-64
2022/12/15 07:05:09;;;;;;;63.17;24.52;;;;;;;-2.41;52.85;100440.50;4968263;28;97067;-64
2022/12/15 07:07:35;;;;;;;57.30;23.75;;;;;;;-2.41;52.43;100449.13;4970445;28;96819;-64
2022/12/15 07:10:03;;;;;;;66.45;25.17;;;;;;;-2.44;52.37;100461.19;4971864;28;98963;-65
2022/12/15 07:12:39;;;;;;;66.63;24.95;;;;;;;-2.70;52.94;100472.91;4971013;28;98838;-65
2022/12/15 07:15:07;;;;;;;62.35;23.85;;;;;;;-2.70;53.11;100491.00;4971972;28;96735;-65
2022/12/15 07:17:34;;;;;;;64.65;24.95;;;;;;;-2.74;53.63;100484.91;4971482;28;96785;-64
2022/12/15 07:20:01;;;;;;;57.38;24.42;;;;;;;-2.56;52.83;100485.16;4966294;28;99070;-64
2022/12/15 07:22:28;;;;;;;62.63;25.15;;;;;;;-2.54;52.42;100477.41;4960314;28;99680;-65
2022/12/15 07:24:54;;;;;;;60.45;23.48;;;;;;;-2.45;52.13;100474.97;4962406;28;98068;-64
2022/12/15 07:27:22;;;;;;;59.70;23.92;;;;;;;-2.43;52.19;100483.63;4967153;28;96769;-65
2022/12/15 07:29:49;;;;;;;60.53;22.92;;;;;;;-2.58;51.97;100492.03;4961634;28;99945;-65
2022/12/15 07:32:16;;;;;;;62.85;24.85;;;;;;;-2.59;52.21;100492.00;4967859;28;98068;-64
2022/12/15 07:34:44;;;;;;;55.22;22.70;;;;;;;-2.45;51.59;100503.41;4957075;28;96661;-63
2022/12/15 07:37:10;;;;;;;62.15;22.83;;;;;;;-2.40;51.56;100501.75;4961803;28;96895;-64
2022/12/15 07:39:36;;;;;;;55.45;22.33;;;;;;;-2.39;51.68;100503.50;4956195;28;98928;-65
2022/12/15 07:42:03;;;;;;;59.55;23.88;;;;;;;-2.37;51.49;100508.69;4966209;28;99463;-64
2022/12/15 07:44:31;;;;;;;56.35;22.63;;;;;;;-2.27;51.33;100513.13;4955863;28;96740;-66
2022/12/15 07:46:58;;;;;;;57.50;22.75;;;;;;;-2.14;50.85;100521.06;4965653;28;96683;-64
2022/12/15 07:49:24;;;;;;;58.15;23.75;;;;;;;-2.39;51.39;100513.84;4957760;28;101310;-64
2022/12/15 07:51:51;;;;;;;63.85;23.48;;;;;;;-2.25;51.39;100516.63;4964522;28;99076;-66
2022/12/15 07:54:18;;;;;;;54.45;22.13;;;;;;;-2.22;50.78;100509.75;4958690;28;96732;-65
2022/12/15 07:56:45;;;;;;;59.25;22.67;;;;;;;-2.15;50.90;100516.72;4961578;28;97454;-65
2022/12/15 07:59:12;;;;;;;55.17;21.67;;;;;;;-2.33;51.21;100524.28;4962047;28;98904;-64
2022/12/15 08:01:43;;;;;;;53.25;21.33;;;;;;;-2.22;50.91;100527.00;4965015;28;98867;-65
2022/12/15 08:04:10;;;;;;;54.78;20.95;;;;;;;-2.10;51.00;100528.00;4960702;28;96811;-64
2022/12/15 08:06:36;;;;;;;55.13;22.42;;;;;;;-1.93;51.12;100536.00;4964974;28;96801;-65
2022/12/15 08:09:03;;;;;;;54.55;23.10;;;;;;;-1.90;51.44;100537.75;4969068;28;99365;-65
2022/12/15 08:11:33;;;;;;;50.58;20.80;;;;;;;-1.87;50.41;100540.38;4965858;28;99032;-64
2022/12/15 08:13:59;;;;;;;50.05;21.70;;;;;;;-1.92;51.17;100535.16;4964179;28;96802;-65
2022/12/15 08:16:26;;;;;;;56.42;23.17;;;;;;;-1.73;50.62;100529.31;4964731;28;96894;-65
2022/12/15 08:18:55;;;;;;;59.78;22.60;;;;;;;-1.69;49.80;100531.06;4960856;28;99326;-64
2022/12/15 08:21:22;;;;;;;51.00;20.67;;;;;;;-1.79;50.00;100539.59;4960875;28;99262;-64
2022/12/15 08:23:48;;;;;;;49.80;20.98;;;;;;;-1.68;50.16;100542.31;4961450;28;96814;-65
2022/12/15 08:26:18;;;;;;;51.88;21.75;;;;;;;-1.69;50.20;100544.03;4961921;28;96743;-64
2022/12/15 08:28:45;;;;;;;54.58;21.10;;;;;;;-1.53;49.51;100546.78;4959567;28;98991;-65
2022/12/15 08:31:13;;;;;;;54.42;22.15;;;;;;;-1.30;50.03;100555.63;4960368;28;99027;-64
2022/12/15 08:33:40;;;;;;;49.03;21.73;;;;;;;-1.39;49.53;100559.03;4961377;28;97022;-64
2022/12/15 08:36:23;;;;;;;55.15;22.33;;;;;;;-1.69;49.94;100550.91;4964343;28;97084;-66
2022/12/15 08:38:50;;;;;;;47.72;22.08;;;;;;;-1.38;49.88;100563.34;4969389;28;99178;-65
2022/12/15 08:41:19;;;;;;;58.97;21.48;;;;;;;-1.32;50.05;100558.25;4964076;28;98774;-66
2022/12/15 08:43:46;;;;;;;58.75;23.23;;;;;;;-1.21;49.34;100558.31;4968983;28;96785;-65
2022/12/15 08:46:13;;;;;;;51.92;22.70;;;;;;;-1.33;48.91;100548.72;4964191;28;97149;-68
2022/12/15 08:48:40;;;;;;;57.88;23.50;;;;;;;-1.16;49.15;100554.03;4968949;28;97070;-65
2022/12/15 08:51:08;;;;;;;58.50;22.42;;;;;;;-1.45;50.18;100555.50;4965272;28;98806;-65
2022/12/15 08:53:35;;;;;;;49.80;22.00;;;;;;;-1.32;49.37;100563.44;4970237;28;96744;-65
2022/12/15 08:56:03;;;;;;;53.97;22.13;;;;;;;-1.42;49.52;100561.56;4965897;28;96763;-66
2022/12/15 08:58:29;;;;;;;53.80;23.27;;;;;;;-1.23;49.29;100570.41;4970472;28;99266;-64
2022/12/15 09:01:00;;;;;;;54.17;22.45;;;;;;;-1.28;49.40;100569.50;4967025;28;97943;-64
2022/12/15 09:03:26;;;;;;;57.38;23.50;;;;;;;-1.31;49.69;100567.72;4958488;28;96807;-64
2022/12/15 09:05:53;;;;;;;56.67;22.38;;;;;;;-1.00;49.41;100573.22;4960261;28;97227;-66
2022/12/15 09:08:21;;;;;;;58.08;23.13;;;;;;;-1.19;48.89;100573.91;4956020;28;97834;-66
2022/12/15 09:10:47;;;;;;;59.28;24.10;;;;;;;-1.46;49.87;100575.38;4967780;28;99123;-65
2022/12/15 09:13:14;;;;;;;56.40;22.23;;;;;;;-1.40;49.66;100570.25;4961715;28;97005;-64
2022/12/15 09:15:44;;;;;;;66.57;24.05;;;;;;;-1.37;49.94;100574.56;4968891;28;98245;-65
2022/12/15 09:18:10;;;;;;;56.03;22.95;;;;;;;-1.21;50.27;100577.34;4961528;28;99079;-65
2022/12/15 09:20:36;;;;;;;71.35;29.67;;;;;;;-1.13;49.66;100569.63;4959467;28;98012;-65
2022/12/15 09:23:03;;;;;;;55.75;23.45;;;;;;;-1.16;49.21;100579.97;4955649;28;99438;-65
2022/12/15 09:25:30;;;;;;;59.92;23.83;;;;;;;-0.93;49.21;100587.97;4960491;28;96792;-63
2022/12/15 09:27:57;;;;;;;52.45;22.92;;;;;;;-0.98;49.21;100589.63;4961365;28;98992;-64
2022/12/15 09:30:23;;;;;;;65.53;23.38;;;;;;;-1.05;49.07;100590.47;4959646;28;98783;-65
2022/12/15 09:32:50;;;;;;;52.17;24.15;;;;;;;-0.86;49.32;100593.22;4962223;28;97005;-72
2022/12/15 09:35:17;;;;;;;57.47;24.05;;;;;;;-0.88;48.65;100597.53;4957488;28;96811;-72
2022/12/15 09:37:43;;;;;;;57.50;24.45;;;;;;;-0.95;48.84;100590.53;4961305;28;97174;-71
2022/12/15 09:40:12;;;;;;;59.50;23.98;;;;;;;-0.95;49.53;100595.72;4965904;28;99126;-73
2022/12/15 09:42:41;;;;;;;61.72;24.60;;;;;;;-0.46;48.99;100596.94;4955545;28;96814;-72
2022/12/15 09:45:17;;;;;;;59.05;24.00;;;;;;;-0.32;47.64;100593.56;4964322;28;96986;-71
2022/12/15 09:47:49;;;;;;;58.40;23.90;;;;;;;-0.37;48.05;100595.28;4957944;28;99247;-72
2022/12/15 09:50:19;;;;;;;55.72;23.48;;;;;;;-0.36;47.54;100592.69;4965191;28;99042;-72
2022/12/15 09:52:49;;;;;;;57.95;22.80;;;;;;;-0.31;47.48;100592.72;4960353;28;97189;-73
2022/12/15 09:55:21;;;;;;;54.92;23.13;;;;;;;-0.22;47.87;100585.00;4960255;28;96826;-72
2022/12/15 09:57:53;;;;;;;60.78;23.70;;;;;;;0.21;47.15;100588.66;4961442;28;100508;-73
2022/12/15 10:00:24;;;;;;;55.05;23.10;;;;;;;0.30;46.90;100589.56;4956247;28;97833;-73
2022/12/15 10:03:21;;;;;;;60.35;23.90;;;;;;;0.55;46.87;100600.91;4968968;28;96793;-72
2022/12/15 10:06:02;;;;;;;55.83;23.25;;;;;;;0.43;45.71;100600.00;4965482;28;96810;-73
2022/12/15 10:08:32;;;;;;;61.85;22.83;;;;;;;0.46;46.08;100593.06;4963524;28;99239;-72
2022/12/15 10:11:01;;;;;;;54.15;23.55;;;;;;;0.41;46.08;100602.59;4962467;28;98982;-73
2022/12/15 10:13:38;;;;;;;52.63;22.75;;;;;;;0.87;46.44;100595.75;4966530;28;97002;-72
2022/12/15 10:16:15;;;;;;;57.47;22.92;;;;;;;1.11;45.51;100594.94;4964497;28;97354;-74
2022/12/15 10:18:55;;;;;;;61.72;26.15;;;;;;;1.17;45.34;100589.72;4967243;28;98963;-73
2022/12/15 10:21:26;;;;;;;55.13;23.52;;;;;;;1.11;45.77;100589.72;4965304;28;99241;-72
2022/12/15 10:23:53;;;;;;;55.00;25.08;;;;;;;1.28;45.14;100595.78;4962694;28;97179;-72
2022/12/15 10:26:22;;;;;;;58.28;23.38;;;;;;;1.17;45.36;100594.94;4961937;28;97214;-72
2022/12/15 10:29:13;;;;;;;56.10;23.25;;;;;;;0.90;45.83;100598.38;4961285;28;97845;-74
2022/12/15 10:31:49;;;;;;;58.53;23.35;;;;;;;0.83;45.89;100596.63;4964718;28;98239;-72
2022/12/15 10:34:24;;;;;;;58.92;24.40;;;;;;;1.18;45.90;100596.69;4963268;28;97151;-74
2022/12/15 10:36:52;;;;;;;58.70;24.65;;;;;;;1.04;46.17;100593.19;4969389;28;96902;-73
2022/12/15 10:39:20;;;;;;;60.80;24.73;;;;;;;1.20;46.29;100602.72;4967251;28;98944;-73
2022/12/15 10:42:07;;;;;;;56.97;24.63;;;;;;;1.13;45.79;100598.38;4965456;28;99434;-73
2022/12/15 10:44:39;;;;;;;58.65;24.10;;;;;;;1.05;46.07;100594.94;4970493;28;97165;-72
2022/12/15 10:47:10;;;;;;;64.82;24.75;;;;;;;1.34;46.22;100603.59;4964642;28;97000;-73
2022/12/15 10:49:36;;;;;;;64.70;25.40;;;;;;;1.35;45.55;100599.25;4964203;28;99250;-73
2022/12/15 10:52:03;;;;;;;63.45;25.98;;;;;;;1.36;45.89;100598.41;4967471;28;98642;-72
2022/12/15 10:54:34;;;;;;;59.33;24.05;;;;;;;1.63;45.73;100602.72;4965894;28;97442;-72
2022/12/15 10:57:14;;;;;;;53.50;23.63;;;;;;;1.67;45.24;100605.31;4962735;28;97053;-73
2022/12/15 10:59:42;;;;;;;59.30;24.65;;;;;;;1.58;45.52;100603.56;4967827;28;98953;-72
2022/12/15 11:02:26;;;;;;;55.70;24.38;;;;;;;1.92;45.09;100612.19;4960413;28;99826;-72
2022/12/15 11:04:55;;;;;;;57.67;24.35;;;;;;;1.62;45.68;100614.00;4960876;28;97306;-72
2022/12/15 11:07:22;;;;;;;55.58;24.00;;;;;;;1.61;46.35;100623.53;4966459;28;97673;-73
2022/12/15 11:09:49;;;;;;;54.45;24.02;;;;;;;1.79;45.59;100618.31;4960395;28;98981;-72
2022/12/15 11:15:03;;;;;;;60.55;24.05;;;;;;;1.90;45.39;100621.75;4964340;28;97254;-73
2022/12/15 11:17:40;;;;;;;58.33;24.60;;;;;;;1.77;45.72;100630.44;4967406;28;96954;-72
2022/12/15 11:20:17;;;;;;;56.50;24.15;;;;;;;2.09;45.26;100633.00;4967105;28;99055;-73
2022/12/15 11:22:50;;;;;;;63.88;24.35;;;;;;;1.90;46.09;100634.78;4963992;28;101134;-72
2022/12/15 11:25:23;;;;;;;61.75;23.00;;;;;;;2.15;45.63;100630.38;4966588;28;96872;-72
2022/12/15 11:27:56;;;;;;;56.15;22.90;;;;;;;2.27;45.34;100632.06;4961436;28;97852;-73
2022/12/15 11:30:29;;;;;;;53.15;24.35;;;;;;;2.34;45.44;100632.06;4960266;28;99485;-73
2022/12/15 11:32:59;;;;;;;50.72;21.90;;;;;;;2.40;45.43;100628.53;4964011;28;99432;-73
2022/12/15 11:35:32;;;;;;;54.28;24.45;;;;;;;2.54;44.98;100623.28;4955818;28;97422;-73
2022/12/15 11:38:07;;;;;;;56.75;23.23;;;;;;;2.35;45.44;100625.09;4966685;28;97493;-72
2022/12/15 11:40:38;;;;;;;46.75;21.88;;;;;;;2.58;44.93;100625.84;4963092;28;100807;-74
2022/12/15 11:43:45;;;;;;;55.47;22.58;;;;;;;2.83;44.22;100623.09;4967683;28;98810;-73
2022/12/15 11:46:20;;;;;;;51.78;23.35;;;;;;;2.54;44.98;100618.91;4964134;28;97021;-73
2022/12/15 11:49:02;;;;;;;54.45;22.45;;;;;;;2.54;45.60;100621.53;4961792;28;96862;-73
2022/12/15 11:51:36;;;;;;;47.58;22.00;;;;;;;2.44;45.71;100625.03;4953777;28;99317;-72
2022/12/15 11:54:15;;;;;;;48.90;20.73;;;;;;;2.87;45.09;100622.22;4957434;28;98964;-73
2022/12/15 11:56:47;;;;;;;58.40;22.73;;;;;;;2.85;45.24;100623.97;4954834;28;97507;-73
2022/12/15 12:00:01;;;;;;;50.83;22.80;;;;;;;2.94;45.20;100618.69;4960214;28;96790;-72
2022/12/15 12:02:43;;;;;;;45.60;20.42;;;;;;;3.09;44.70;100615.97;4957575;28;98893;-73
2022/12/15 12:05:26;;;;;;;52.30;21.88;;;;;;;2.99;45.02;100616.91;4959830;28;98732;-73
2022/12/15 12:07:58;;;;;;;49.83;21.85;;;;;;;3.08;45.14;100609.91;4955615;28;97072;-73
2022/12/15 12:10:35;;;;;;;52.17;22.45;;;;;;;2.91;45.17;100600.44;4968678;28;96799;-72
2022/12/15 12:13:11;;;;;;;55.65;23.05;;;;;;;2.80;45.45;100608.34;4957920;28;98277;-73
2022/12/15 12:15:50;;;;;;;45.10;20.70;;;;;;;3.15;44.67;100613.34;4960104;28;99447;-73
2022/12/15 12:18:24;;;;;;;49.03;21.45;;;;;;;2.85;45.77;100608.31;4964699;28;96924;-72
2022/12/15 12:20:56;;;;;;;42.67;18.67;;;;;;;3.14;45.09;100604.63;4961054;28;97209;-73
2022/12/15 12:23:30;;;;;;;50.25;20.85;;;;;;;3.03;45.72;100608.19;4964087;28;99387;-73
2022/12/15 12:26:05;;;;;;;46.63;19.98;;;;;;;2.94;45.69;100603.03;4960011;28;101411;-74
2022/12/15 12:28:41;;;;;;;55.10;21.95;;;;;;;2.66;46.19;100595.38;4967959;28;97124;-74
2022/12/15 12:31:20;;;;;;;48.75;21.05;;;;;;;2.88;45.96;100600.47;4957232;28;97261;-74
2022/12/15 12:33:53;;;;;;;51.28;21.35;;;;;;;2.73;46.56;100606.63;4954212;28;99023;-74
2022/12/15 12:36:20;;;;;;;51.67;21.80;;;;;;;3.04;45.99;100599.47;4958117;28;99250;-75
2022/12/15 12:38:49;;;;;;;42.30;20.25;;;;;;;2.75;46.81;100611.00;4960957;28;97669;-72
2022/12/15 12:41:23;;;;;;;44.83;19.70;;;;;;;2.96;46.29;100606.47;4966848;28;96868;-74
2022/12/15 12:43:54;;;;;;;47.97;21.42;;;;;;;2.84;46.62;100610.03;4966630;28;99468;-74
2022/12/15 12:46:24;;;;;;;44.58;20.58;;;;;;;3.07;46.38;100617.75;4965583;28;101007;-72
2022/12/15 12:48:57;;;;;;;43.90;20.35;;;;;;;3.17;46.30;100620.25;4967724;28;96895;-73
2022/12/15 12:51:27;;;;;;;42.75;20.27;;;;;;;3.15;46.15;100622.00;4969817;28;97088;-73
2022/12/15 12:53:54;;;;;;;44.85;20.55;;;;;;;3.22;45.83;100630.66;4967461;28;99094;-72
2022/12/15 12:56:30;;;;;;;42.78;19.45;;;;;;;3.42;45.71;100627.88;4965448;28;99042;-73
2022/12/15 12:58:57;;;;;;;;;;;;;;;3.76;45.52;100629.31;4969505;28;96992;-73
2022/12/15 13:01:29;;;;;;;38.35;17.67;;;;;;;3.85;45.16;100637.09;4963250;28;96775;-73
2022/12/15 13:04:11;;;;;;;43.65;20.60;;;;;;;3.84;45.47;100637.09;4960733;28;99116;-73
2022/12/15 13:07:00;;;;;;;42.83;20.08;;;;;;;4.07;44.55;100626.41;4968097;28;99739;-73
2022/12/15 13:09:39;;;;;;;40.90;19.10;;;;;;;3.93;45.32;100634.41;4962292;28;96842;-73
2022/12/15 13:12:46;;;;;;;43.58;19.15;;;;;;;4.13;44.53;100636.81;4967398;28;97059;-72
2022/12/15 13:15:18;;;;;;;49.27;20.00;;;;;;;4.32;44.33;100631.34;4964786;28;98971;-72
2022/12/15 13:17:51;;;;;;;46.88;19.35;;;;;;;4.11;45.06;100623.75;4960093;28;99096;-74
2022/12/15 13:20:24;;;;;;;41.42;18.67;;;;;;;4.17;44.65;100618.44;4967185;28;97321;-73
2022/12/15 13:22:51;;;;;;;45.80;20.50;;;;;;;4.22;45.34;100615.75;4969928;28;96891;-72
2022/12/15 13:25:43;;;;;;;45.08;20.88;;;;;;;4.42;44.52;100624.25;4970263;28;97683;-73
2022/12/15 13:28:42;;;;;;;43.45;19.42;;;;;;;4.25;44.68;100620.97;4966785;28;97884;-73
2022/12/15 13:31:30;;;;;;;42.55;21.15;;;;;;;4.08;45.37;100622.91;4970140;28;97936;-73
2022/12/15 13:34:04;;;;;;;42.58;20.25;;;;;;;4.38;44.73;100620.81;4965762;28;96943;-65
2022/12/15 13:36:54;;;;;;;42.97;20.55;;;;;;;4.61;44.86;100617.88;4964453;28;99010;-65
2022/12/15 13:39:48;;;;;;;55.88;19.98;;;;;;;4.69;44.70;100613.41;4957953;28;98901;-64
2022/12/15 13:42:34;;;;;;;43.83;19.88;;;;;;;4.54;44.43;100615.38;4957553;28;96985;-66
2022/12/15 13:45:15;;;;;;;50.90;20.27;;;;;;;4.58;44.38;100628.41;4963833;28;97594;-66
2022/12/15 13:47:54;;;;;;;46.40;20.92;;;;;;;4.25;45.55;100627.06;4965704;28;99279;-66
2022/12/15 13:50:31;;;;;;;45.78;21.25;;;;;;;3.99;46.15;100631.72;4964320;28;99056;-65
2022/12/15 13:53:03;;;;;;;55.35;23.38;;;;;;;3.98;46.03;100628.25;4966973;28;96837;-66
2022/12/15 13:55:36;;;;;;;60.22;24.13;;;;;;;3.61;47.08;100619.88;4963053;28;97141;-66
2022/12/15 13:58:10;;;;;;;49.25;24.30;;;;;;;3.61;47.24;100622.50;4964093;28;99374;-65
2022/12/15 14:00:39;;;;;;;51.42;23.08;;;;;;;3.42;47.79;100620.91;4968075;28;98833;-66
2022/12/15 14:03:11;;;;;;;43.08;19.73;;;;;;;3.89;47.05;100632.69;4967469;28;97324;-66
2022/12/15 14:05:41;;;;;;;49.72;22.80;;;;;;;3.45;47.64;100631.34;4965185;28;97173;-66
2022/12/15 14:08:14;;;;;;;48.20;22.88;;;;;;;3.61;47.84;100630.34;4966279;28;99460;-65
2022/12/15 14:10:42;;;;;;;50.97;21.50;;;;;;;3.45;48.13;100628.75;4970438;28;99221;-66
2022/12/15 14:13:12;;;;;;;50.15;22.83;;;;;;;3.54;47.69;100628.66;4968976;28;96830;-64
2022/12/15 14:15:44;;;;;;;55.75;21.55;;;;;;;3.40;47.85;100627.94;4965066;28;97268;-63
2022/12/15 14:18:23;;;;;;;51.25;21.30;;;;;;;3.62;47.48;100623.34;4964168;28;98928;-65
2022/12/15 14:20:50;;;;;;;54.42;23.05;;;;;;;3.47;47.67;100623.53;4962578;28;98947;-64
2022/12/15 14:23:21;;;;;;;54.33;21.88;;;;;;;3.58;47.78;100624.28;4968754;28;99045;-66
2022/12/15 14:26:02;;;;;;;54.35;22.52;;;;;;;3.35;48.10;100627.06;4961424;28;97251;-66
2022/12/15 14:28:31;;;;;;;44.50;20.65;;;;;;;3.22;48.16;100627.22;4965799;28;100030;-65
2022/12/15 14:31:03;;;;;;;43.25;21.30;;;;;;;3.30;48.70;100623.63;4967343;28;98957;-65
2022/12/15 14:33:32;;;;;;;47.78;20.92;;;;;;;3.31;48.48;100627.13;4964748;28;96745;-64
2022/12/15 14:36:05;;;;;;;50.97;24.02;;;;;;;3.25;48.55;100640.22;4962370;28;97461;-65
2022/12/15 14:38:41;;;;;;;55.42;23.55;;;;;;;3.17;48.84;100635.91;4960328;28;99089;-65
2022/12/15 14:41:14;;;;;;;58.95;25.30;;;;;;;3.47;48.38;100631.34;4966633;28;99416;-66